sensor_id;sensor_type;location;lat;lon;timestamp;temperature;humidity
73576;DHT22;61859;49.204;8.140;2022-07-23T00:00:32;24.40;65.20
73576;DHT22;61859;49.204;8.140;2022-07-23T00:02:58;24.40;65.20
73576;DHT22;61859;49.204;8.140;2022-07-23T00:05:24;24.40;65.40
73576;DHT22;61859;49.204;8.140;2022-07-23T00:07:49;24.30;64.10
73576;DHT22;61859;49.204;8.140;2022-07-23T00:10:15;24.20;65.00
73576;DHT22;61859;49.204;8.140;2022-07-23T00:12:41;24.20;65.00
73576;DHT22;61859;49.204;8.140;2022-07-23T00:15:07;24.20;65.30
73576;DHT22;61859;49.204;8.140;2022-07-23T00:17:33;24.10;66.00
73576;DHT22;61859;49.204;8.140;2022-07-23T00:19:59;23.90;65.80
73576;DHT22;61859;49.204;8.140;2022-07-23T00:22:25;23.80;66.40
73576;DHT22;61859;49.204;8.140;2022-07-23T00:24:51;23.80;66.60
73576;DHT22;61859;49.204;8.140;2022-07-23T00:27:16;23.80;66.30
73576;DHT22;61859;49.204;8.140;2022-07-23T00:29:42;23.80;66.50
73576;DHT22;61859;49.204;8.140;2022-07-23T00:32:08;23.80;67.10
73576;DHT22;61859;49.204;8.140;2022-07-23T00:34:33;23.80;67.10
73576;DHT22;61859;49.204;8.140;2022-07-23T00:36:59;23.80;67.10
73576;DHT22;61859;49.204;8.140;2022-07-23T00:39:24;23.70;67.00
73576;DHT22;61859;49.204;8.140;2022-07-23T00:41:52;23.80;67.20
73576;DHT22;61859;49.204;8.140;2022-07-23T00:44:25;23.70;66.90
73576;DHT22;61859;49.204;8.140;2022-07-23T00:46:54;23.70;66.80
73576;DHT22;61859;49.204;8.140;2022-07-23T00:49:21;23.70;67.70
73576;DHT22;61859;49.204;8.140;2022-07-23T00:51:47;23.60;67.70
73576;DHT22;61859;49.204;8.140;2022-07-23T00:54:13;23.60;67.60
73576;DHT22;61859;49.204;8.140;2022-07-23T00:56:39;23.50;67.70
73576;DHT22;61859;49.204;8.140;2022-07-23T00:59:06;23.50;68.40
73576;DHT22;61859;49.204;8.140;2022-07-23T01:01:32;23.30;69.10
73576;DHT22;61859;49.204;8.140;2022-07-23T01:03:58;23.30;69.40
73576;DHT22;61859;49.204;8.140;2022-07-23T01:06:24;23.30;69.40
73576;DHT22;61859;49.204;8.140;2022-07-23T01:08:49;23.20;69.70
73576;DHT22;61859;49.204;8.140;2022-07-23T01:11:15;23.10;69.80
73576;DHT22;61859;49.204;8.140;2022-07-23T01:13:42;23.10;70.20
73576;DHT22;61859;49.204;8.140;2022-07-23T01:16:08;23.20;69.00
73576;DHT22;61859;49.204;8.140;2022-07-23T01:18:33;23.10;69.40
73576;DHT22;61859;49.204;8.140;2022-07-23T01:20:59;23.20;69.20
73576;DHT22;61859;49.204;8.140;2022-07-23T01:23:25;23.20;68.10
73576;DHT22;61859;49.204;8.140;2022-07-23T01:25:54;23.20;67.40
73576;DHT22;61859;49.204;8.140;2022-07-23T01:28:20;23.30;67.00
73576;DHT22;61859;49.204;8.140;2022-07-23T01:30:46;23.30;67.00
73576;DHT22;61859;49.204;8.140;2022-07-23T01:33:12;23.40;67.30
73576;DHT22;61859;49.204;8.140;2022-07-23T01:35:37;23.20;67.80
73576;DHT22;61859;49.204;8.140;2022-07-23T01:38:03;23.30;68.30
73576;DHT22;61859;49.204;8.140;2022-07-23T01:40:28;23.10;69.00
73576;DHT22;61859;49.204;8.140;2022-07-23T01:42:54;23.10;69.30
73576;DHT22;61859;49.204;8.140;2022-07-23T01:45:20;23.00;69.70
73576;DHT22;61859;49.204;8.140;2022-07-23T01:47:46;22.80;70.20
73576;DHT22;61859;49.204;8.140;2022-07-23T01:50:11;22.80;70.50
73576;DHT22;61859;49.204;8.140;2022-07-23T01:52:37;22.70;70.60
73576;DHT22;61859;49.204;8.140;2022-07-23T01:55:03;22.70;69.20
73576;DHT22;61859;49.204;8.140;2022-07-23T01:57:28;22.70;69.60
73576;DHT22;61859;49.204;8.140;2022-07-23T01:59:54;22.60;69.80
73576;DHT22;61859;49.204;8.140;2022-07-23T02:02:19;22.60;70.10
73576;DHT22;61859;49.204;8.140;2022-07-23T02:04:45;22.50;69.90
73576;DHT22;61859;49.204;8.140;2022-07-23T02:07:11;22.50;69.80
73576;DHT22;61859;49.204;8.140;2022-07-23T02:09:36;22.60;69.50
73576;DHT22;61859;49.204;8.140;2022-07-23T02:12:02;22.50;69.40
73576;DHT22;61859;49.204;8.140;2022-07-23T02:14:27;22.50;69.70
73576;DHT22;61859;49.204;8.140;2022-07-23T02:16:53;22.50;70.10
73576;DHT22;61859;49.204;8.140;2022-07-23T02:19:18;22.50;70.00
73576;DHT22;61859;49.204;8.140;2022-07-23T02:21:44;22.50;70.20
73576;DHT22;61859;49.204;8.140;2022-07-23T02:24:10;22.50;70.30
73576;DHT22;61859;49.204;8.140;2022-07-23T02:26:35;22.50;70.90
73576;DHT22;61859;49.204;8.140;2022-07-23T02:29:03;22.40;71.50
73576;DHT22;61859;49.204;8.140;2022-07-23T02:31:29;22.40;72.20
73576;DHT22;61859;49.204;8.140;2022-07-23T02:33:55;22.30;72.50
73576;DHT22;61859;49.204;8.140;2022-07-23T02:36:21;22.20;72.90
73576;DHT22;61859;49.204;8.140;2022-07-23T02:38:46;22.10;73.40
73576;DHT22;61859;49.204;8.140;2022-07-23T02:41:12;22.10;73.70
73576;DHT22;61859;49.204;8.140;2022-07-23T02:43:38;22.10;73.80
73576;DHT22;61859;49.204;8.140;2022-07-23T02:46:04;22.00;73.90
73576;DHT22;61859;49.204;8.140;2022-07-23T02:48:30;22.00;74.20
73576;DHT22;61859;49.204;8.140;2022-07-23T02:50:55;22.10;74.00
73576;DHT22;61859;49.204;8.140;2022-07-23T02:53:22;22.10;74.10
73576;DHT22;61859;49.204;8.140;2022-07-23T02:55:48;22.00;74.50
73576;DHT22;61859;49.204;8.140;2022-07-23T02:58:14;22.00;74.70
73576;DHT22;61859;49.204;8.140;2022-07-23T03:00:39;22.00;74.40
73576;DHT22;61859;49.204;8.140;2022-07-23T03:03:05;22.00;74.20
73576;DHT22;61859;49.204;8.140;2022-07-23T03:05:31;22.10;74.30
73576;DHT22;61859;49.204;8.140;2022-07-23T03:07:57;22.20;74.30
73576;DHT22;61859;49.204;8.140;2022-07-23T03:10:23;22.10;74.30
73576;DHT22;61859;49.204;8.140;2022-07-23T03:12:48;22.20;74.60
73576;DHT22;61859;49.204;8.140;2022-07-23T03:15:14;22.20;74.00
73576;DHT22;61859;49.204;8.140;2022-07-23T03:17:39;22.20;73.70
73576;DHT22;61859;49.204;8.140;2022-07-23T03:20:05;22.20;73.70
73576;DHT22;61859;49.204;8.140;2022-07-23T03:22:31;22.20;74.10
73576;DHT22;61859;49.204;8.140;2022-07-23T03:24:56;22.20;74.00
73576;DHT22;61859;49.204;8.140;2022-07-23T03:27:27;22.20;74.20
73576;DHT22;61859;49.204;8.140;2022-07-23T03:29:55;22.10;74.70
73576;DHT22;61859;49.204;8.140;2022-07-23T03:32:21;22.10;74.70
73576;DHT22;61859;49.204;8.140;2022-07-23T03:34:47;22.10;74.70
73576;DHT22;61859;49.204;8.140;2022-07-23T03:37:12;22.10;75.00
73576;DHT22;61859;49.204;8.140;2022-07-23T03:39:38;22.10;74.70
73576;DHT22;61859;49.204;8.140;2022-07-23T03:42:03;22.10;74.00
73576;DHT22;61859;49.204;8.140;2022-07-23T03:44:29;22.20;74.10
73576;DHT22;61859;49.204;8.140;2022-07-23T03:46:55;22.20;73.90
73576;DHT22;61859;49.204;8.140;2022-07-23T03:49:20;22.10;74.20
73576;DHT22;61859;49.204;8.140;2022-07-23T03:51:46;22.10;74.80
73576;DHT22;61859;49.204;8.140;2022-07-23T03:54:12;22.10;76.80
73576;DHT22;61859;49.204;8.140;2022-07-23T03:56:37;21.80;78.50
73576;DHT22;61859;49.204;8.140;2022-07-23T03:59:03;21.60;80.40
73576;DHT22;61859;49.204;8.140;2022-07-23T04:01:29;21.40;81.20
73576;DHT22;61859;49.204;8.140;2022-07-23T04:03:54;21.10;82.20
73576;DHT22;61859;49.204;8.140;2022-07-23T04:06:20;21.00;83.80
73576;DHT22;61859;49.204;8.140;2022-07-23T04:08:45;20.80;85.60
73576;DHT22;61859;49.204;8.140;2022-07-23T04:11:11;20.70;86.90
73576;DHT22;61859;49.204;8.140;2022-07-23T04:13:36;20.70;88.50
73576;DHT22;61859;49.204;8.140;2022-07-23T04:16:02;20.70;89.30
73576;DHT22;61859;49.204;8.140;2022-07-23T04:18:28;20.60;88.90
73576;DHT22;61859;49.204;8.140;2022-07-23T04:20:54;20.50;89.10
73576;DHT22;61859;49.204;8.140;2022-07-23T04:23:20;20.60;89.00
73576;DHT22;61859;49.204;8.140;2022-07-23T04:25:46;20.60;88.90
73576;DHT22;61859;49.204;8.140;2022-07-23T04:28:11;20.70;88.20
73576;DHT22;61859;49.204;8.140;2022-07-23T04:30:36;20.70;88.60
73576;DHT22;61859;49.204;8.140;2022-07-23T04:33:03;20.70;89.20
73576;DHT22;61859;49.204;8.140;2022-07-23T04:35:32;20.60;89.10
73576;DHT22;61859;49.204;8.140;2022-07-23T04:37:58;20.70;87.40
73576;DHT22;61859;49.204;8.140;2022-07-23T04:40:23;20.60;88.00
73576;DHT22;61859;49.204;8.140;2022-07-23T04:42:49;20.60;88.30
73576;DHT22;61859;49.204;8.140;2022-07-23T04:45:14;20.60;88.90
73576;DHT22;61859;49.204;8.140;2022-07-23T04:47:40;20.60;89.30
73576;DHT22;61859;49.204;8.140;2022-07-23T04:50:05;20.70;89.70
73576;DHT22;61859;49.204;8.140;2022-07-23T04:52:31;20.60;90.20
73576;DHT22;61859;49.204;8.140;2022-07-23T04:54:57;20.60;90.20
73576;DHT22;61859;49.204;8.140;2022-07-23T04:57:22;20.60;89.90
73576;DHT22;61859;49.204;8.140;2022-07-23T04:59:48;20.60;90.00
73576;DHT22;61859;49.204;8.140;2022-07-23T05:02:13;20.60;90.40
73576;DHT22;61859;49.204;8.140;2022-07-23T05:04:39;20.70;90.60
73576;DHT22;61859;49.204;8.140;2022-07-23T05:07:04;20.70;91.10
73576;DHT22;61859;49.204;8.140;2022-07-23T05:09:29;20.70;90.90
73576;DHT22;61859;49.204;8.140;2022-07-23T05:11:55;20.70;91.00
73576;DHT22;61859;49.204;8.140;2022-07-23T05:14:21;20.60;90.90
73576;DHT22;61859;49.204;8.140;2022-07-23T05:16:46;20.70;91.10
73576;DHT22;61859;49.204;8.140;2022-07-23T05:19:12;20.70;91.20
73576;DHT22;61859;49.204;8.140;2022-07-23T05:21:37;20.80;91.20
73576;DHT22;61859;49.204;8.140;2022-07-23T05:24:03;20.80;91.30
73576;DHT22;61859;49.204;8.140;2022-07-23T05:26:29;20.80;91.20
73576;DHT22;61859;49.204;8.140;2022-07-23T05:28:54;20.80;90.90
73576;DHT22;61859;49.204;8.140;2022-07-23T05:31:20;20.90;90.90
73576;DHT22;61859;49.204;8.140;2022-07-23T05:33:45;20.90;90.80
73576;DHT22;61859;49.204;8.140;2022-07-23T05:36:11;20.90;90.00
73576;DHT22;61859;49.204;8.140;2022-07-23T05:38:36;20.90;90.10
73576;DHT22;61859;49.204;8.140;2022-07-23T05:41:02;20.90;89.10
73576;DHT22;61859;49.204;8.140;2022-07-23T05:43:28;21.00;89.10
73576;DHT22;61859;49.204;8.140;2022-07-23T05:45:54;21.00;88.80
73576;DHT22;61859;49.204;8.140;2022-07-23T05:48:20;21.00;89.10
73576;DHT22;61859;49.204;8.140;2022-07-23T05:50:46;21.00;89.40
73576;DHT22;61859;49.204;8.140;2022-07-23T05:53:12;21.00;89.60
73576;DHT22;61859;49.204;8.140;2022-07-23T05:55:37;21.00;89.70
73576;DHT22;61859;49.204;8.140;2022-07-23T05:58:03;20.90;89.70
73576;DHT22;61859;49.204;8.140;2022-07-23T06:00:29;20.90;89.30
73576;DHT22;61859;49.204;8.140;2022-07-23T06:02:54;20.90;89.10
73576;DHT22;61859;49.204;8.140;2022-07-23T06:05:20;20.90;88.80
73576;DHT22;61859;49.204;8.140;2022-07-23T06:07:45;20.80;89.60
73576;DHT22;61859;49.204;8.140;2022-07-23T06:10:11;20.90;89.60
73576;DHT22;61859;49.204;8.140;2022-07-23T06:12:37;20.80;89.80
73576;DHT22;61859;49.204;8.140;2022-07-23T06:15:03;20.80;90.10
73576;DHT22;61859;49.204;8.140;2022-07-23T06:17:28;20.70;90.70
73576;DHT22;61859;49.204;8.140;2022-07-23T06:19:55;20.70;91.30
73576;DHT22;61859;49.204;8.140;2022-07-23T06:22:21;20.70;91.80
73576;DHT22;61859;49.204;8.140;2022-07-23T06:24:47;20.70;92.00
73576;DHT22;61859;49.204;8.140;2022-07-23T06:27:13;20.70;92.30
73576;DHT22;61859;49.204;8.140;2022-07-23T06:29:38;20.80;92.80
73576;DHT22;61859;49.204;8.140;2022-07-23T06:32:06;20.90;92.50
73576;DHT22;61859;49.204;8.140;2022-07-23T06:34:31;21.00;92.50
73576;DHT22;61859;49.204;8.140;2022-07-23T06:36:57;21.00;92.10
73576;DHT22;61859;49.204;8.140;2022-07-23T06:39:23;21.10;91.80
73576;DHT22;61859;49.204;8.140;2022-07-23T06:41:48;21.10;91.60
73576;DHT22;61859;49.204;8.140;2022-07-23T06:44:14;21.30;91.30
73576;DHT22;61859;49.204;8.140;2022-07-23T06:46:39;21.40;90.90
73576;DHT22;61859;49.204;8.140;2022-07-23T06:49:05;21.60;90.60
73576;DHT22;61859;49.204;8.140;2022-07-23T06:51:30;21.60;90.40
73576;DHT22;61859;49.204;8.140;2022-07-23T06:53:56;21.70;89.70
73576;DHT22;61859;49.204;8.140;2022-07-23T06:56:21;21.80;89.10
73576;DHT22;61859;49.204;8.140;2022-07-23T06:58:47;21.90;88.60
73576;DHT22;61859;49.204;8.140;2022-07-23T07:01:13;22.00;88.40
73576;DHT22;61859;49.204;8.140;2022-07-23T07:03:38;22.10;87.80
73576;DHT22;61859;49.204;8.140;2022-07-23T07:06:04;22.00;87.80
73576;DHT22;61859;49.204;8.140;2022-07-23T07:08:29;22.00;87.90
73576;DHT22;61859;49.204;8.140;2022-07-23T07:10:55;22.10;87.90
73576;DHT22;61859;49.204;8.140;2022-07-23T07:13:21;22.20;86.80
73576;DHT22;61859;49.204;8.140;2022-07-23T07:15:46;22.30;87.30
73576;DHT22;61859;49.204;8.140;2022-07-23T07:18:12;22.40;86.80
73576;DHT22;61859;49.204;8.140;2022-07-23T07:20:37;22.40;86.40
73576;DHT22;61859;49.204;8.140;2022-07-23T07:23:03;22.50;85.00
73576;DHT22;61859;49.204;8.140;2022-07-23T07:25:28;22.60;85.40
73576;DHT22;61859;49.204;8.140;2022-07-23T07:27:54;22.80;85.80
73576;DHT22;61859;49.204;8.140;2022-07-23T07:30:19;22.90;85.30
73576;DHT22;61859;49.204;8.140;2022-07-23T07:32:45;23.00;84.50
73576;DHT22;61859;49.204;8.140;2022-07-23T07:35:10;23.10;84.30
73576;DHT22;61859;49.204;8.140;2022-07-23T07:37:36;23.20;83.90
73576;DHT22;61859;49.204;8.140;2022-07-23T07:40:02;23.30;83.10
73576;DHT22;61859;49.204;8.140;2022-07-23T07:42:28;23.40;83.10
73576;DHT22;61859;49.204;8.140;2022-07-23T07:44:54;23.50;83.00
73576;DHT22;61859;49.204;8.140;2022-07-23T07:47:19;23.70;82.10
73576;DHT22;61859;49.204;8.140;2022-07-23T07:49:45;23.80;82.10
73576;DHT22;61859;49.204;8.140;2022-07-23T07:52:10;23.90;81.90
73576;DHT22;61859;49.204;8.140;2022-07-23T07:54:36;23.90;80.50
73576;DHT22;61859;49.204;8.140;2022-07-23T07:57:02;23.90;79.40
73576;DHT22;61859;49.204;8.140;2022-07-23T07:59:28;24.00;79.10
73576;DHT22;61859;49.204;8.140;2022-07-23T08:01:53;24.10;80.00
73576;DHT22;61859;49.204;8.140;2022-07-23T08:04:19;24.10;79.70
73576;DHT22;61859;49.204;8.140;2022-07-23T08:06:44;24.10;79.80
73576;DHT22;61859;49.204;8.140;2022-07-23T08:09:10;24.30;80.10
73576;DHT22;61859;49.204;8.140;2022-07-23T08:11:36;24.40;79.70
73576;DHT22;61859;49.204;8.140;2022-07-23T08:14:01;24.50;79.60
73576;DHT22;61859;49.204;8.140;2022-07-23T08:16:27;24.60;78.10
73576;DHT22;61859;49.204;8.140;2022-07-23T08:18:52;24.70;76.40
73576;DHT22;61859;49.204;8.140;2022-07-23T08:21:18;24.70;75.70
73576;DHT22;61859;49.204;8.140;2022-07-23T08:23:44;24.60;76.00
73576;DHT22;61859;49.204;8.140;2022-07-23T08:26:09;24.60;77.40
73576;DHT22;61859;49.204;8.140;2022-07-23T08:28:35;24.60;77.50
73576;DHT22;61859;49.204;8.140;2022-07-23T08:31:01;24.60;77.30
73576;DHT22;61859;49.204;8.140;2022-07-23T08:33:26;24.60;77.60
73576;DHT22;61859;49.204;8.140;2022-07-23T08:35:52;24.60;77.50
73576;DHT22;61859;49.204;8.140;2022-07-23T08:38:21;24.60;77.60
73576;DHT22;61859;49.204;8.140;2022-07-23T08:40:50;24.60;77.50
73576;DHT22;61859;49.204;8.140;2022-07-23T08:43:22;24.70;77.50
73576;DHT22;61859;49.204;8.140;2022-07-23T08:45:52;24.70;78.30
73576;DHT22;61859;49.204;8.140;2022-07-23T08:48:21;25.00;76.50
73576;DHT22;61859;49.204;8.140;2022-07-23T08:50:55;25.30;76.50
73576;DHT22;61859;49.204;8.140;2022-07-23T08:53:23;25.70;74.60
73576;DHT22;61859;49.204;8.140;2022-07-23T08:55:51;26.10;74.20
73576;DHT22;61859;49.204;8.140;2022-07-23T08:58:17;26.30;71.80
73576;DHT22;61859;49.204;8.140;2022-07-23T09:00:43;26.40;70.90
73576;DHT22;61859;49.204;8.140;2022-07-23T09:03:21;26.40;71.20
73576;DHT22;61859;49.204;8.140;2022-07-23T09:05:49;26.70;69.40
73576;DHT22;61859;49.204;8.140;2022-07-23T09:08:18;27.00;68.30
73576;DHT22;61859;49.204;8.140;2022-07-23T09:10:54;27.20;69.00
73576;DHT22;61859;49.204;8.140;2022-07-23T09:15:50;28.10;65.90
73576;DHT22;61859;49.204;8.140;2022-07-23T09:18:16;28.30;63.60
73576;DHT22;61859;49.204;8.140;2022-07-23T09:20:44;28.50;64.10
73576;DHT22;61859;49.204;8.140;2022-07-23T09:23:09;28.80;62.80
73576;DHT22;61859;49.204;8.140;2022-07-23T09:25:35;29.00;62.40
73576;DHT22;61859;49.204;8.140;2022-07-23T09:28:01;29.30;63.10
73576;DHT22;61859;49.204;8.140;2022-07-23T09:30:30;29.50;61.00
73576;DHT22;61859;49.204;8.140;2022-07-23T09:33:08;29.70;60.00
73576;DHT22;61859;49.204;8.140;2022-07-23T09:35:48;29.90;58.90
73576;DHT22;61859;49.204;8.140;2022-07-23T09:38:15;30.00;57.20
73576;DHT22;61859;49.204;8.140;2022-07-23T09:40:41;30.10;59.10
73576;DHT22;61859;49.204;8.140;2022-07-23T09:43:06;30.20;59.00
73576;DHT22;61859;49.204;8.140;2022-07-23T09:45:32;30.20;57.20
73576;DHT22;61859;49.204;8.140;2022-07-23T09:48:14;30.30;57.70
73576;DHT22;61859;49.204;8.140;2022-07-23T09:50:42;30.40;57.00
73576;DHT22;61859;49.204;8.140;2022-07-23T09:53:08;30.80;56.50
73576;DHT22;61859;49.204;8.140;2022-07-23T09:55:35;31.20;55.50
73576;DHT22;61859;49.204;8.140;2022-07-23T09:58:05;31.50;54.90
73576;DHT22;61859;49.204;8.140;2022-07-23T10:00:33;31.80;54.30
73576;DHT22;61859;49.204;8.140;2022-07-23T10:02:59;32.20;54.50
73576;DHT22;61859;49.204;8.140;2022-07-23T10:05:25;32.20;51.20
73576;DHT22;61859;49.204;8.140;2022-07-23T10:07:51;32.10;50.70
73576;DHT22;61859;49.204;8.140;2022-07-23T10:10:17;31.60;51.50
73576;DHT22;61859;49.204;8.140;2022-07-23T10:12:44;30.90;52.60
73576;DHT22;61859;49.204;8.140;2022-07-23T10:15:30;30.60;54.70
73576;DHT22;61859;49.204;8.140;2022-07-23T10:17:55;30.90;52.90
73576;DHT22;61859;49.204;8.140;2022-07-23T10:20:21;31.30;51.90
73576;DHT22;61859;49.204;8.140;2022-07-23T10:25:46;31.90;51.10
73576;DHT22;61859;49.204;8.140;2022-07-23T10:28:41;32.20;49.10
73576;DHT22;61859;49.204;8.140;2022-07-23T10:36:40;32.90;48.40
73576;DHT22;61859;49.204;8.140;2022-07-23T10:39:15;33.00;48.90
73576;DHT22;61859;49.204;8.140;2022-07-23T10:41:42;33.00;46.60
73576;DHT22;61859;49.204;8.140;2022-07-23T10:44:16;32.80;47.00
73576;DHT22;61859;49.204;8.140;2022-07-23T10:47:00;32.70;45.30
73576;DHT22;61859;49.204;8.140;2022-07-23T10:49:33;32.50;45.40
73576;DHT22;61859;49.204;8.140;2022-07-23T10:57:27;32.20;46.10
73576;DHT22;61859;49.204;8.140;2022-07-23T11:02:36;32.00;47.30
73576;DHT22;61859;49.204;8.140;2022-07-23T11:05:05;32.40;47.60
73576;DHT22;61859;49.204;8.140;2022-07-23T11:07:31;32.90;46.80
73576;DHT22;61859;49.204;8.140;2022-07-23T11:09:57;33.30;44.50
73576;DHT22;61859;49.204;8.140;2022-07-23T11:25:14;34.00;42.60
73576;DHT22;61859;49.204;8.140;2022-07-23T11:27:53;34.20;42.60
73576;DHT22;61859;49.204;8.140;2022-07-23T11:35:38;33.70;47.00
73576;DHT22;61859;49.204;8.140;2022-07-23T11:38:07;34.00;45.60
73576;DHT22;61859;49.204;8.140;2022-07-23T11:40:34;34.10;45.70
73576;DHT22;61859;49.204;8.140;2022-07-23T11:43:10;34.20;46.30
73576;DHT22;61859;49.204;8.140;2022-07-23T11:48:05;35.00;44.60
73576;DHT22;61859;49.204;8.140;2022-07-23T11:50:31;35.00;44.40
73576;DHT22;61859;49.204;8.140;2022-07-23T11:52:57;34.80;44.20
73576;DHT22;61859;49.204;8.140;2022-07-23T11:55:22;34.60;45.40
73576;DHT22;61859;49.204;8.140;2022-07-23T11:57:51;34.20;45.10
73576;DHT22;61859;49.204;8.140;2022-07-23T12:00:20;33.90;45.40
73576;DHT22;61859;49.204;8.140;2022-07-23T12:02:51;33.80;46.30
73576;DHT22;61859;49.204;8.140;2022-07-23T12:05:21;33.70;45.60
73576;DHT22;61859;49.204;8.140;2022-07-23T12:07:49;33.60;44.60
73576;DHT22;61859;49.204;8.140;2022-07-23T12:12:55;33.10;46.60
73576;DHT22;61859;49.204;8.140;2022-07-23T12:15:32;33.20;46.10
73576;DHT22;61859;49.204;8.140;2022-07-23T12:18:00;33.70;44.80
73576;DHT22;61859;49.204;8.140;2022-07-23T12:20:28;34.00;43.90
73576;DHT22;61859;49.204;8.140;2022-07-23T12:22:59;34.50;43.80
73576;DHT22;61859;49.204;8.140;2022-07-23T12:25:28;34.70;44.50
73576;DHT22;61859;49.204;8.140;2022-07-23T12:28:20;34.70;43.50
73576;DHT22;61859;49.204;8.140;2022-07-23T12:30:51;34.30;43.90
73576;DHT22;61859;49.204;8.140;2022-07-23T12:33:29;34.20;44.30
73576;DHT22;61859;49.204;8.140;2022-07-23T12:35:57;34.00;44.00
73576;DHT22;61859;49.204;8.140;2022-07-23T12:38:25;33.40;43.80
73576;DHT22;61859;49.204;8.140;2022-07-23T12:40:56;32.80;45.30
73576;DHT22;61859;49.204;8.140;2022-07-23T12:43:27;32.40;47.10
73576;DHT22;61859;49.204;8.140;2022-07-23T12:48:22;32.40;45.70
73576;DHT22;61859;49.204;8.140;2022-07-23T12:50:53;32.30;45.50
73576;DHT22;61859;49.204;8.140;2022-07-23T12:53:43;32.10;47.10
73576;DHT22;61859;49.204;8.140;2022-07-23T12:56:11;31.60;43.60
73576;DHT22;61859;49.204;8.140;2022-07-23T12:58:48;31.30;44.70
73576;DHT22;61859;49.204;8.140;2022-07-23T13:04:09;32.20;43.40
73576;DHT22;61859;49.204;8.140;2022-07-23T13:06:44;32.20;42.40
73576;DHT22;61859;49.204;8.140;2022-07-23T13:09:14;32.40;43.40
73576;DHT22;61859;49.204;8.140;2022-07-23T13:11:40;33.00;42.90
73576;DHT22;61859;49.204;8.140;2022-07-23T13:14:05;33.10;42.00
73576;DHT22;61859;49.204;8.140;2022-07-23T13:16:32;32.90;43.90
73576;DHT22;61859;49.204;8.140;2022-07-23T13:18:58;32.60;44.00
73576;DHT22;61859;49.204;8.140;2022-07-23T13:21:25;32.50;45.00
73576;DHT22;61859;49.204;8.140;2022-07-23T13:23:51;33.10;42.80
73576;DHT22;61859;49.204;8.140;2022-07-23T13:26:17;33.90;39.50
73576;DHT22;61859;49.204;8.140;2022-07-23T13:28:42;34.40;39.80
73576;DHT22;61859;49.204;8.140;2022-07-23T13:31:08;34.90;37.40
73576;DHT22;61859;49.204;8.140;2022-07-23T13:33:34;35.10;37.80
73576;DHT22;61859;49.204;8.140;2022-07-23T13:36:00;35.20;37.90
73576;DHT22;61859;49.204;8.140;2022-07-23T13:38:26;34.80;38.20
73576;DHT22;61859;49.204;8.140;2022-07-23T13:40:52;34.20;38.30
73576;DHT22;61859;49.204;8.140;2022-07-23T13:43:20;33.70;39.60
73576;DHT22;61859;49.204;8.140;2022-07-23T13:45:47;33.70;40.90
73576;DHT22;61859;49.204;8.140;2022-07-23T13:48:13;34.20;39.30
73576;DHT22;61859;49.204;8.140;2022-07-23T13:50:40;35.00;37.60
73576;DHT22;61859;49.204;8.140;2022-07-23T13:53:12;35.40;37.30
73576;DHT22;61859;49.204;8.140;2022-07-23T13:55:40;35.60;37.20
73576;DHT22;61859;49.204;8.140;2022-07-23T13:58:06;35.70;38.50
73576;DHT22;61859;49.204;8.140;2022-07-23T14:00:33;35.50;41.70
73576;DHT22;61859;49.204;8.140;2022-07-23T14:03:00;35.00;42.00
73576;DHT22;61859;49.204;8.140;2022-07-23T14:05:25;34.50;41.70
73576;DHT22;61859;49.204;8.140;2022-07-23T14:07:52;33.90;42.70
73576;DHT22;61859;49.204;8.140;2022-07-23T14:10:19;33.30;44.40
73576;DHT22;61859;49.204;8.140;2022-07-23T14:12:46;32.80;45.30
73576;DHT22;61859;49.204;8.140;2022-07-23T14:15:12;32.20;46.10
73576;DHT22;61859;49.204;8.140;2022-07-23T14:17:39;31.80;47.20
73576;DHT22;61859;49.204;8.140;2022-07-23T14:20:06;31.50;47.90
73576;DHT22;61859;49.204;8.140;2022-07-23T14:22:32;31.60;48.30
73576;DHT22;61859;49.204;8.140;2022-07-23T14:24:58;31.80;47.50
73576;DHT22;61859;49.204;8.140;2022-07-23T14:27:25;32.00;47.00
73576;DHT22;61859;49.204;8.140;2022-07-23T14:29:51;32.20;47.40
73576;DHT22;61859;49.204;8.140;2022-07-23T14:32:17;32.40;46.40
73576;DHT22;61859;49.204;8.140;2022-07-23T14:34:42;32.70;46.50
73576;DHT22;61859;49.204;8.140;2022-07-23T14:37:10;32.70;45.70
73576;DHT22;61859;49.204;8.140;2022-07-23T14:39:36;33.00;45.50
73576;DHT22;61859;49.204;8.140;2022-07-23T14:42:03;33.80;44.40
73576;DHT22;61859;49.204;8.140;2022-07-23T14:44:28;34.10;42.40
73576;DHT22;61859;49.204;8.140;2022-07-23T14:46:54;34.00;43.30
73576;DHT22;61859;49.204;8.140;2022-07-23T14:49:20;34.20;42.70
73576;DHT22;61859;49.204;8.140;2022-07-23T14:51:45;34.00;43.20
73576;DHT22;61859;49.204;8.140;2022-07-23T14:54:11;33.70;44.00
73576;DHT22;61859;49.204;8.140;2022-07-23T14:56:37;33.40;44.00
73576;DHT22;61859;49.204;8.140;2022-07-23T14:59:05;33.20;44.50
73576;DHT22;61859;49.204;8.140;2022-07-23T15:01:31;33.50;43.90
73576;DHT22;61859;49.204;8.140;2022-07-23T15:03:57;34.20;42.30
73576;DHT22;61859;49.204;8.140;2022-07-23T15:06:22;34.80;42.20
73576;DHT22;61859;49.204;8.140;2022-07-23T15:08:48;35.50;41.50
73576;DHT22;61859;49.204;8.140;2022-07-23T15:11:14;36.00;40.30
73576;DHT22;61859;49.204;8.140;2022-07-23T15:13:39;36.90;38.20
73576;DHT22;61859;49.204;8.140;2022-07-23T15:16:06;37.70;36.20
73576;DHT22;61859;49.204;8.140;2022-07-23T15:18:31;37.80;35.20
73576;DHT22;61859;49.204;8.140;2022-07-23T15:20:57;37.80;36.40
73576;DHT22;61859;49.204;8.140;2022-07-23T15:23:23;37.70;36.40
73576;DHT22;61859;49.204;8.140;2022-07-23T15:25:49;37.20;35.20
73576;DHT22;61859;49.204;8.140;2022-07-23T15:28:15;36.50;37.30
73576;DHT22;61859;49.204;8.140;2022-07-23T15:30:40;36.20;40.30
73576;DHT22;61859;49.204;8.140;2022-07-23T15:33:06;36.10;39.40
73576;DHT22;61859;49.204;8.140;2022-07-23T15:35:32;36.00;37.50
73576;DHT22;61859;49.204;8.140;2022-07-23T15:37:58;35.80;36.60
73576;DHT22;61859;49.204;8.140;2022-07-23T15:40:24;35.50;36.80
73576;DHT22;61859;49.204;8.140;2022-07-23T15:42:49;35.30;38.50
73576;DHT22;61859;49.204;8.140;2022-07-23T15:45:15;35.40;37.10
73576;DHT22;61859;49.204;8.140;2022-07-23T15:47:41;35.30;37.10
73576;DHT22;61859;49.204;8.140;2022-07-23T15:50:07;35.30;37.00
73576;DHT22;61859;49.204;8.140;2022-07-23T15:52:33;35.40;36.60
73576;DHT22;61859;49.204;8.140;2022-07-23T15:54:58;35.40;39.10
73576;DHT22;61859;49.204;8.140;2022-07-23T15:57:24;35.20;36.50
73576;DHT22;61859;49.204;8.140;2022-07-23T15:59:50;35.00;36.60
73576;DHT22;61859;49.204;8.140;2022-07-23T16:02:15;35.00;36.20
73576;DHT22;61859;49.204;8.140;2022-07-23T16:04:42;34.80;37.00
73576;DHT22;61859;49.204;8.140;2022-07-23T16:07:07;34.80;36.00
73576;DHT22;61859;49.204;8.140;2022-07-23T16:09:33;34.60;35.80
73576;DHT22;61859;49.204;8.140;2022-07-23T16:11:59;34.60;37.00
73576;DHT22;61859;49.204;8.140;2022-07-23T16:14:25;34.70;36.80